KOUN/OUN METAR and TAF weather

Enter ICAO airport designator
Station Type Date Time Source
KOUN METAR 2022/05/23 15:45 UTC NOAA

KOUN 231545Z 09006KT 10SM TS -RA OVC006 12/12 A3013 RMK LTG DSNT ALQDS


Station Type Date Time Source
KOUN Decoded METAR 2022/05/23 15:45 UTC NOAA

Norman / Max Westheimer, OK, United States (KOUN) 35-13N 097-27W 357M
May 23, 2022 - 11:45 AM EDT / 2022.05.23 1545 UTC
Wind: from the E (090 degrees) at 7 MPH (6 KT):0
Visibility: 10 mile(s):0
Sky conditions: overcast
Weather: thunder; light rain; Lightning observed
Temperature: 53 F (12 C)
Dew Point: 53 F (12 C)
Relative Humidity: 100%
Pressure (altimeter): 30.13 in. Hg (1020 hPa)
ob: KOUN 231545Z 09006KT 10SM TS -RA OVC006 12/12 A3013 RMK LTG DSNT ALQDS
cycle: 16

Station Type Date Time Source
KOUN TAF 2022/05/23 12:27 UTC NOAA

TAF
AMD KOUN 231224Z 2312/2412 09009KT P6SM OVC018
TEMPO 2312/2316 4SM -TSRA BR OVC025CB
FM231600 13008KT 6SM BR OVC009
TEMPO 2316/2320 4SM -TSRA BR BKN009 OVC025CB
FM240100 11008KT 6SM BR OVC009
TEMPO 2408/2412 3SM TSRA SCT009 OVC015CB

Example: see airport list